createdAt,value
2019-01-27T00:00:13.841Z,1.23
2019-01-27T00:03:03.076Z,1.19
2019-01-27T00:05:51.463Z,1.12
2019-01-27T00:08:39.941Z,1.06
2019-01-27T00:11:28.724Z,1.03
2019-01-27T00:14:18.403Z,0.98
2019-01-27T00:17:07.818Z,0.86
2019-01-27T00:19:56.517Z,0.83
2019-01-27T00:22:44.886Z,0.76
2019-01-27T00:25:34.058Z,0.70
2019-01-27T00:28:22.612Z,0.46
2019-01-27T00:31:10.815Z,0.46
2019-01-27T00:33:59.597Z,0.48
2019-01-27T00:36:48.344Z,0.45
2019-01-27T00:39:37.381Z,0.44
2019-01-27T00:42:25.733Z,0.28
2019-01-27T00:45:18.860Z,0.22
2019-01-27T00:48:08.581Z,0.27
2019-01-27T00:50:57.190Z,0.32
2019-01-27T00:53:46.151Z,0.42
2019-01-27T00:56:34.335Z,0.44
2019-01-27T00:59:23.498Z,0.44
2019-01-27T01:02:11.926Z,0.50
2019-01-27T01:05:02.134Z,0.50
2019-01-27T01:07:51.539Z,0.64
2019-01-27T01:10:40.468Z,0.58
2019-01-27T01:13:28.495Z,0.63
2019-01-27T01:16:17.103Z,0.61
2019-01-27T01:19:06.578Z,0.54
2019-01-27T01:21:55.083Z,0.56
2019-01-27T01:24:43.181Z,0.48
2019-01-27T01:27:32.163Z,0.62
2019-01-27T01:30:26.904Z,0.73
2019-01-27T01:33:15.442Z,0.67
2019-01-27T01:36:05.735Z,0.52
2019-01-27T01:38:54.981Z,0.56
2019-01-27T01:41:43.469Z,0.61
2019-01-27T01:44:32.385Z,0.69
2019-01-27T01:47:21.641Z,0.68
2019-01-27T01:50:10.456Z,0.70
2019-01-27T01:52:59.598Z,0.67
2019-01-27T01:55:48.555Z,0.62
2019-01-27T01:58:37.444Z,0.65
2019-01-27T02:01:25.954Z,0.68
2019-01-27T02:04:14.387Z,0.71
2019-01-27T02:07:03.028Z,0.77
2019-01-27T02:09:50.777Z,0.71
2019-01-27T02:12:39.592Z,0.67
2019-01-27T02:16:02.958Z,0.61
2019-01-27T02:18:51.800Z,0.60
2019-01-27T02:21:41.542Z,0.63
2019-01-27T02:24:30.880Z,0.58
2019-01-27T02:27:19.583Z,0.54
2019-01-27T02:30:08.680Z,0.56
2019-01-27T02:32:57.040Z,0.65
2019-01-27T02:35:45.876Z,0.78
2019-01-27T02:38:34.791Z,0.81
2019-01-27T02:41:23.987Z,0.76
2019-01-27T02:44:12.373Z,0.79
2019-01-27T02:47:01.136Z,0.73
2019-01-27T02:49:49.956Z,0.62
2019-01-27T02:52:38.772Z,0.56
2019-01-27T02:55:27.806Z,0.47
2019-01-27T02:58:15.781Z,0.42
2019-01-27T03:01:05.290Z,0.43
2019-01-27T03:03:54.168Z,0.44
2019-01-27T03:07:02.627Z,0.48
2019-01-27T03:09:52.014Z,0.43
2019-01-27T03:12:39.921Z,0.43
2019-01-27T03:15:28.982Z,0.48
2019-01-27T03:18:19.579Z,0.53
2019-01-27T03:21:08.160Z,0.60
2019-01-27T03:23:56.821Z,0.63
2019-01-27T03:26:45.402Z,0.69
2019-01-27T03:29:33.670Z,0.61
2019-01-27T03:32:22.790Z,0.62
2019-01-27T03:35:11.327Z,0.69
2019-01-27T03:37:59.382Z,0.71
2019-01-27T03:40:48.235Z,0.72
2019-01-27T03:43:36.524Z,0.69
2019-01-27T03:46:24.574Z,0.65
2019-01-27T03:49:12.825Z,0.64
2019-01-27T03:52:02.055Z,0.74
2019-01-27T03:54:50.431Z,0.68
2019-01-27T03:57:39.234Z,0.55
2019-01-27T04:00:28.487Z,0.51
2019-01-27T04:03:17.723Z,0.52
2019-01-27T04:06:05.986Z,0.62
2019-01-27T04:08:55.269Z,0.81
2019-01-27T04:11:45.601Z,1.02
2019-01-27T04:14:34.476Z,1.21
2019-01-27T04:17:23.575Z,1.11
2019-01-27T04:20:14.745Z,1.28
2019-01-27T04:23:03.241Z,1.15
2019-01-27T04:25:52.864Z,1.14
2019-01-27T04:28:42.378Z,1.15
2019-01-27T04:31:31.623Z,1.15
2019-01-27T04:34:19.824Z,1.06
2019-01-27T04:37:08.144Z,1.12
2019-01-27T04:39:58.685Z,1.19
2019-01-27T04:42:47.720Z,1.15
2019-01-27T04:45:37.964Z,1.20
2019-01-27T04:48:26.849Z,1.20
2019-01-27T04:51:16.153Z,1.26
2019-01-27T04:54:04.413Z,1.20
2019-01-27T04:56:53.723Z,1.24
2019-01-27T04:59:42.864Z,1.20
2019-01-27T05:02:38.061Z,1.15
2019-01-27T05:05:26.787Z,1.34
2019-01-27T05:08:15.639Z,1.42
2019-01-27T05:11:03.893Z,1.33
2019-01-27T05:13:52.073Z,1.32
2019-01-27T05:16:40.920Z,1.30
2019-01-27T05:19:29.047Z,1.28
2019-01-27T05:22:18.640Z,1.19
2019-01-27T05:25:09.646Z,1.11
2019-01-27T05:27:58.463Z,1.16
2019-01-27T05:30:46.592Z,1.02
2019-01-27T05:33:35.331Z,0.98
2019-01-27T05:36:24.269Z,1.01
2019-01-27T05:39:12.808Z,0.89
2019-01-27T05:42:01.620Z,0.87
2019-01-27T05:44:50.248Z,1.00
2019-01-27T05:47:38.648Z,0.97
2019-01-27T05:50:27.967Z,0.99
2019-01-27T05:53:17.512Z,0.93
2019-01-27T05:56:06.700Z,0.97
2019-01-27T05:58:55.655Z,1.03
2019-01-27T06:01:43.467Z,1.09
2019-01-27T06:04:33.042Z,1.06
2019-01-27T06:07:21.622Z,1.11
2019-01-27T06:10:11.407Z,1.14
2019-01-27T06:13:00.445Z,1.28
2019-01-27T06:15:49.377Z,1.24
2019-01-27T06:18:37.205Z,1.25
2019-01-27T06:21:25.484Z,1.33
2019-01-27T06:24:13.892Z,1.34
2019-01-27T06:27:02.067Z,1.35
2019-01-27T06:29:50.832Z,1.41
2019-01-27T06:32:46.571Z,1.42
2019-01-27T06:35:34.981Z,1.48
2019-01-27T06:38:23.518Z,1.50
2019-01-27T06:41:12.976Z,1.51
2019-01-27T06:44:20.896Z,1.49
2019-01-27T06:47:08.942Z,1.44
2019-01-27T06:49:57.142Z,1.40
2019-01-27T06:52:45.840Z,1.46
2019-01-27T06:55:34.217Z,1.48
2019-01-27T06:58:24.506Z,1.49
2019-01-27T07:01:22.028Z,1.50
2019-01-27T07:04:16.247Z,1.62
2019-01-27T07:07:28.100Z,1.65
2019-01-27T07:10:37.536Z,1.65
2019-01-27T07:13:32.624Z,1.52
2019-01-27T07:16:34.316Z,1.52
2019-01-27T07:19:34.000Z,1.58
2019-01-27T07:22:51.085Z,1.48
2019-01-27T07:25:58.357Z,1.50
2019-01-27T07:28:56.035Z,1.50
2019-01-27T07:32:08.927Z,1.47
2019-01-27T07:35:24.426Z,1.47
2019-01-27T07:38:35.408Z,1.31
2019-01-27T07:41:41.703Z,1.23
2019-01-27T07:44:45.402Z,1.23
2019-01-27T07:47:49.055Z,1.31
2019-01-27T07:50:53.007Z,1.32
2019-01-27T07:54:00.626Z,1.40
2019-01-27T07:57:04.887Z,1.28
2019-01-27T08:00:23.301Z,1.38
2019-01-27T08:03:33.542Z,1.56
2019-01-27T08:06:30.982Z,1.61
2019-01-27T08:09:41.680Z,1.55
2019-01-27T08:12:47.713Z,1.66
2019-01-27T08:15:45.686Z,1.72
2019-01-27T08:18:52.329Z,1.63
2019-01-27T08:22:01.474Z,1.58
2019-01-27T08:25:12.143Z,1.70
2019-01-27T08:28:20.560Z,1.47
2019-01-27T08:31:31.878Z,1.64
2019-01-27T08:34:38.837Z,1.64
2019-01-27T08:37:46.854Z,1.66
2019-01-27T08:40:51.712Z,1.94
2019-01-27T08:44:04.331Z,1.94
2019-01-27T08:46:55.827Z,2.10
2019-01-27T08:49:45.142Z,2.14
2019-01-27T08:52:37.025Z,2.17
2019-01-27T08:55:26.174Z,2.21
2019-01-27T08:58:15.359Z,2.49
2019-01-27T09:01:22.572Z,2.49
2019-01-27T09:04:20.324Z,2.56
2019-01-27T09:07:41.192Z,2.83
2019-01-27T09:11:01.663Z,3.15
2019-01-27T09:13:55.974Z,3.34
2019-01-27T09:16:57.767Z,3.34
2019-01-27T09:20:14.120Z,3.42
2019-01-27T09:23:37.742Z,3.38
2019-01-27T09:26:54.625Z,3.37
2019-01-27T09:30:17.734Z,3.56
2019-01-27T09:33:38.695Z,3.68
2019-01-27T09:36:46.364Z,3.89
2019-01-27T09:39:44.012Z,3.81
2019-01-27T09:42:58.063Z,3.89
2019-01-27T09:46:39.219Z,4.01
2019-01-27T09:53:09.103Z,4.29
2019-01-27T09:56:08.939Z,4.41
2019-01-27T09:59:17.086Z,4.21
2019-01-27T10:02:21.202Z,4.12
2019-01-27T10:05:33.872Z,4.28
2019-01-27T10:12:20.825Z,4.48
2019-01-27T10:15:29.924Z,4.66
2019-01-27T10:18:32.194Z,4.90
2019-01-27T10:21:41.817Z,4.97
2019-01-27T10:24:52.078Z,4.93
2019-01-27T10:28:03.681Z,5.05
2019-01-27T10:31:04.752Z,5.12
2019-01-27T10:34:13.120Z,5.10
2019-01-27T10:37:17.162Z,5.28
2019-01-27T10:40:40.653Z,5.46
2019-01-27T10:43:43.767Z,5.69
2019-01-27T10:46:50.002Z,5.62
2019-01-27T10:50:02.647Z,5.77
2019-01-27T10:53:03.088Z,5.76
2019-01-27T10:56:03.039Z,5.83
2019-01-27T10:59:14.956Z,5.89
2019-01-27T11:02:22.922Z,5.77
2019-01-27T11:05:20.350Z,5.96
2019-01-27T11:08:37.438Z,6.14
2019-01-27T11:11:53.402Z,6.13
2019-01-27T11:15:02.037Z,6.27
2019-01-27T11:18:16.324Z,6.49
2019-01-27T11:21:13.569Z,6.22
2019-01-27T11:24:29.871Z,6.30
2019-01-27T11:27:49.703Z,6.44
2019-01-27T11:30:57.984Z,6.35
2019-01-27T11:33:57.967Z,6.36
2019-01-27T11:37:10.877Z,6.44
2019-01-27T11:40:13.588Z,6.58
2019-01-27T11:43:45.202Z,6.61
2019-01-27T11:46:52.197Z,6.60
2019-01-27T11:49:59.617Z,6.92
2019-01-27T11:52:58.862Z,6.99
2019-01-27T11:55:49.576Z,6.76
2019-01-27T11:58:40.020Z,6.73
2019-01-27T12:01:29.093Z,6.92
2019-01-27T12:04:18.614Z,7.01
2019-01-27T12:07:07.308Z,6.99
2019-01-27T12:09:56.409Z,6.94
2019-01-27T12:12:45.245Z,6.83
2019-01-27T12:15:34.345Z,7.08
2019-01-27T12:18:23.619Z,7.33
2019-01-27T12:21:12.266Z,7.36
2019-01-27T12:24:00.620Z,7.45
2019-01-27T12:26:49.561Z,7.24
2019-01-27T12:29:38.676Z,7.41
2019-01-27T12:32:27.327Z,7.34
2019-01-27T12:35:17.152Z,7.28
2019-01-27T12:42:01.991Z,7.28
2019-01-27T12:44:51.612Z,7.11
2019-01-27T12:47:40.793Z,7.18
2019-01-27T12:50:35.021Z,7.06
2019-01-27T12:53:24.025Z,7.09
2019-01-27T12:56:12.821Z,7.18
2019-01-27T12:59:04.638Z,7.15
2019-01-27T13:01:53.671Z,6.94
2019-01-27T13:04:47.115Z,6.88
2019-01-27T13:07:38.501Z,6.83
2019-01-27T13:10:29.819Z,6.93
2019-01-27T13:13:18.691Z,6.94
2019-01-27T13:16:07.841Z,6.91
2019-01-27T13:18:58.120Z,6.82
2019-01-27T13:21:57.702Z,6.94
2019-01-27T13:24:46.483Z,6.82
2019-01-27T13:31:08.861Z,6.83
2019-01-27T13:33:57.685Z,6.73
2019-01-27T13:36:48.672Z,6.81
2019-01-27T13:39:46.162Z,6.77
2019-01-27T13:42:32.842Z,6.93
2019-01-27T13:45:23.407Z,6.92
2019-01-27T13:48:12.298Z,7.05
2019-01-27T13:51:03.691Z,7.07
2019-01-27T13:54:15.005Z,7.06
2019-01-27T14:03:51.877Z,7.24
2019-01-27T14:07:06.243Z,7.23
2019-01-27T14:13:02.454Z,7.40
2019-01-27T14:15:53.151Z,7.29
2019-01-27T14:18:41.847Z,7.25
2019-01-27T14:21:37.334Z,7.15
2019-01-27T14:24:28.606Z,7.14
2019-01-27T14:27:40.225Z,7.01
2019-01-27T14:30:38.637Z,7.09
2019-01-27T14:33:27.954Z,6.95
2019-01-27T14:36:17.316Z,6.75
2019-01-27T14:39:08.568Z,6.64
2019-01-27T14:41:56.715Z,6.53
2019-01-27T14:44:45.981Z,6.43
2019-01-27T14:47:36.756Z,6.40
2019-01-27T14:50:34.013Z,6.34
2019-01-27T14:53:23.280Z,6.27
2019-01-27T14:56:12.024Z,6.28
2019-01-27T14:59:05.248Z,6.27
2019-01-27T15:01:54.678Z,6.21
2019-01-27T15:04:43.290Z,6.19
2019-01-27T15:07:32.892Z,6.13
2019-01-27T15:10:21.132Z,6.03
2019-01-27T15:13:10.192Z,6.02
2019-01-27T15:15:58.885Z,6.03
2019-01-27T15:18:47.471Z,6.03
2019-01-27T15:21:36.164Z,6.03
2019-01-27T15:24:25.614Z,6.01
2019-01-27T15:27:15.021Z,5.90
2019-01-27T15:30:05.880Z,5.94
2019-01-27T15:33:13.885Z,5.89
2019-01-27T15:36:03.480Z,5.88
2019-01-27T15:38:51.971Z,5.98
2019-01-27T15:41:58.590Z,5.97
2019-01-27T15:44:47.398Z,5.87
2019-01-27T15:47:36.705Z,5.91
2019-01-27T15:50:29.538Z,5.96
2019-01-27T15:53:17.745Z,5.81
2019-01-27T15:56:06.835Z,5.84
2019-01-27T15:58:56.200Z,5.69
2019-01-27T16:01:45.020Z,5.79
2019-01-27T16:04:36.753Z,5.67
2019-01-27T16:07:27.308Z,5.70
2019-01-27T16:10:22.062Z,5.66
2019-01-27T16:13:15.042Z,5.69
2019-01-27T16:16:37.812Z,5.76
2019-01-27T16:19:26.996Z,5.69
2019-01-27T16:22:16.077Z,5.64
2019-01-27T16:25:08.487Z,5.61
2019-01-27T16:27:58.174Z,5.62
2019-01-27T16:31:06.271Z,5.63
2019-01-27T16:34:12.506Z,5.68
2019-01-27T16:37:04.873Z,5.75
2019-01-27T16:39:54.792Z,5.82
2019-01-27T16:42:44.023Z,5.71
2019-01-27T16:45:32.919Z,5.69
2019-01-27T16:48:23.698Z,5.74
2019-01-27T16:51:12.382Z,5.74
2019-01-27T16:54:19.957Z,5.81
2019-01-27T16:57:08.135Z,5.86
2019-01-27T17:00:20.283Z,5.85
2019-01-27T17:03:30.781Z,5.80
2019-01-27T17:06:20.616Z,5.76
2019-01-27T17:09:10.638Z,5.80
2019-01-27T17:11:59.608Z,5.72
2019-01-27T17:14:49.169Z,5.79
2019-01-27T17:17:38.280Z,5.81
2019-01-27T17:20:27.269Z,5.73
2019-01-27T17:23:15.709Z,5.73
2019-01-27T17:26:05.641Z,5.70
2019-01-27T17:28:56.500Z,5.71
2019-01-27T17:31:45.195Z,5.57
2019-01-27T17:34:34.535Z,5.64
2019-01-27T17:37:22.450Z,5.64
2019-01-27T17:40:13.557Z,5.33
2019-01-27T17:43:01.884Z,5.40
2019-01-27T17:45:51.842Z,5.17
2019-01-27T17:48:39.880Z,5.09
2019-01-27T17:51:29.680Z,5.16
2019-01-27T17:54:18.371Z,5.22
2019-01-27T17:57:29.794Z,5.17
2019-01-27T18:00:40.112Z,5.24
2019-01-27T18:03:48.106Z,5.18
2019-01-27T18:06:53.972Z,5.19
2019-01-27T18:10:11.860Z,5.09
2019-01-27T18:13:11.888Z,5.02
2019-01-27T18:16:03.334Z,4.90
2019-01-27T18:18:52.501Z,4.93
2019-01-27T18:21:42.185Z,4.91
2019-01-27T18:24:30.715Z,4.89
2019-01-27T18:27:20.261Z,4.79
2019-01-27T18:30:12.536Z,4.68
2019-01-27T18:33:05.593Z,4.71
2019-01-27T18:35:53.896Z,4.69
2019-01-27T18:38:43.686Z,4.49
2019-01-27T18:41:53.164Z,4.42
2019-01-27T18:44:44.842Z,4.36
2019-01-27T18:47:34.043Z,4.29
2019-01-27T18:50:22.784Z,4.28
2019-01-27T18:53:25.318Z,4.14
2019-01-27T18:56:31.582Z,4.10
2019-01-27T18:59:26.944Z,4.12
2019-01-27T19:02:27.149Z,4.09
2019-01-27T19:05:30.639Z,4.01
2019-01-27T19:08:58.611Z,3.97
2019-01-27T19:12:04.522Z,4.16
2019-01-27T19:15:09.104Z,4.18
2019-01-27T19:18:18.233Z,4.24
2019-01-27T19:21:12.274Z,4.08
2019-01-27T19:24:19.212Z,4.17
2019-01-27T19:27:36.960Z,4.08
2019-01-27T19:30:31.161Z,4.05
2019-01-27T19:33:35.118Z,4.00
2019-01-27T19:36:30.101Z,3.93
2019-01-27T19:39:35.206Z,3.95
2019-01-27T19:42:43.992Z,4.12
2019-01-27T19:45:50.865Z,4.09
2019-01-27T19:49:00.748Z,3.91
2019-01-27T19:52:16.156Z,3.75
2019-01-27T19:55:24.032Z,3.75
2019-01-27T19:58:28.482Z,3.74
2019-01-27T20:01:36.325Z,3.75
2019-01-27T20:04:37.987Z,3.75
2019-01-27T20:07:50.128Z,3.66
2019-01-27T20:11:08.142Z,3.87
2019-01-27T20:14:21.840Z,3.80
2019-01-27T20:17:24.530Z,3.62
2019-01-27T20:20:32.019Z,3.53
2019-01-27T20:23:36.631Z,3.70
2019-01-27T20:26:41.250Z,4.00
2019-01-27T20:29:45.707Z,3.97
2019-01-27T20:33:05.496Z,4.05
2019-01-27T20:36:18.703Z,4.06
2019-01-27T20:39:18.844Z,4.25
2019-01-27T20:42:29.119Z,4.08
2019-01-27T20:45:24.525Z,4.06
2019-01-27T20:48:33.465Z,3.93
2019-01-27T20:51:44.078Z,3.93
2019-01-27T20:54:46.527Z,3.90
2019-01-27T20:57:39.945Z,3.59
2019-01-27T21:00:44.273Z,3.59
2019-01-27T21:03:51.044Z,3.47
2019-01-27T21:06:48.604Z,3.58
2019-01-27T21:09:47.529Z,3.53
2019-01-27T21:12:55.549Z,3.45
2019-01-27T21:15:49.727Z,3.41
2019-01-27T21:18:43.024Z,3.37
2019-01-27T21:21:32.058Z,3.40
2019-01-27T21:24:20.875Z,3.20
2019-01-27T21:27:15.963Z,3.16
2019-01-27T21:30:05.698Z,3.15
2019-01-27T21:32:55.829Z,3.15
2019-01-27T21:35:44.844Z,3.06
2019-01-27T21:38:35.154Z,3.06
2019-01-27T21:41:23.889Z,2.88
2019-01-27T21:44:12.492Z,2.86
2019-01-27T21:47:01.573Z,2.91
2019-01-27T21:49:50.366Z,2.83
2019-01-27T21:52:39.503Z,2.83
2019-01-27T21:55:28.366Z,2.81
2019-01-27T21:58:17.669Z,2.91
2019-01-27T22:01:06.947Z,2.72
2019-01-27T22:03:59.433Z,2.84
2019-01-27T22:06:49.044Z,2.94
2019-01-27T22:09:38.667Z,2.94
2019-01-27T22:12:27.971Z,2.86
2019-01-27T22:15:16.609Z,2.83
2019-01-27T22:18:10.034Z,2.80
2019-01-27T22:20:58.869Z,2.77
2019-01-27T22:23:47.691Z,2.98
2019-01-27T22:26:37.006Z,3.01
2019-01-27T22:29:34.397Z,3.04
2019-01-27T22:32:23.228Z,3.11
2019-01-27T22:35:12.688Z,3.18
2019-01-27T22:41:38.122Z,3.26
2019-01-27T22:44:29.647Z,3.34
2019-01-27T22:50:27.867Z,3.45
2019-01-27T22:53:29.434Z,3.49
2019-01-27T22:56:37.806Z,3.57
2019-01-27T22:59:26.460Z,3.59
2019-01-27T23:02:16.001Z,3.57
2019-01-27T23:05:05.593Z,3.64
2019-01-27T23:08:02.061Z,3.67
2019-01-27T23:10:51.054Z,3.68
2019-01-27T23:13:40.209Z,3.68
2019-01-27T23:16:29.055Z,3.73
2019-01-27T23:19:20.874Z,3.78
2019-01-27T23:22:09.520Z,3.68
2019-01-27T23:24:57.677Z,3.82
2019-01-27T23:27:46.608Z,3.77
2019-01-27T23:30:35.113Z,3.75
2019-01-27T23:33:23.551Z,3.81
2019-01-27T23:36:12.295Z,3.74
2019-01-27T23:39:01.338Z,3.74
2019-01-27T23:41:50.042Z,3.78
2019-01-27T23:44:39.356Z,3.81
2019-01-27T23:47:28.757Z,3.80
2019-01-27T23:50:17.709Z,3.73
2019-01-27T23:53:06.817Z,3.70
2019-01-27T23:55:55.871Z,3.62
2019-01-27T23:58:44.691Z,3.60
